Time;durP1;ratioP1;P1;durP2;ratioP2;P2;SDS_P1;SDS_P2;PMS_P1;PMS_P2;Temp;Humidity;BMP_temperature;BMP_pressure;BME280_temperature;BME280_humidity;BME280_pressure;Samples;Min_cycle;Max_cycle;Signal;HPM_P1;HPM_P2
2023/02/18 00:00:16;;;;;;;15.77;3.55;;;7.10;99.90;;;;;;6186155;23;20379;-76
2023/02/18 00:02:42;;;;;;;13.02;2.65;;;7.20;99.90;;;;;;6186497;23;20334;-76
2023/02/18 00:05:08;;;;;;;17.48;3.63;;;7.20;99.90;;;;;;6161262;23;20020;-77
2023/02/18 00:07:38;;;;;;;18.95;3.20;;;7.30;99.90;;;;;;6186011;23;20005;-76
2023/02/18 00:10:05;;;;;;;;;;;7.30;99.90;;;;;;6161737;23;20013;-76
2023/02/18 00:12:32;;;;;;;18.85;3.58;;;7.30;99.90;;;;;;6185830;23;19961;-76
2023/02/18 00:14:58;;;;;;;15.95;3.25;;;7.30;99.90;;;;;;6187672;23;20013;-76
2023/02/18 00:17:23;;;;;;;17.25;3.70;;;7.30;99.90;;;;;;6161559;23;20012;-76
2023/02/18 00:19:49;;;;;;;15.60;3.15;;;7.30;99.90;;;;;;6187804;23;20044;-76
2023/02/18 00:22:15;;;;;;;15.85;3.03;;;7.30;99.90;;;;;;6185909;23;20529;-76
2023/02/18 00:24:41;;;;;;;21.00;5.00;;;7.30;99.90;;;;;;6161139;23;20074;-76
2023/02/18 00:27:06;;;;;;;19.17;2.95;;;7.30;99.90;;;;;;6185860;23;20013;-76
2023/02/18 00:29:32;;;;;;;12.55;2.90;;;7.30;99.90;;;;;;6187273;23;20021;-76
2023/02/18 00:31:58;;;;;;;13.98;3.47;;;7.30;99.90;;;;;;6186504;23;20017;-76
2023/02/18 00:34:24;;;;;;;14.45;2.70;;;7.40;99.90;;;;;;6185794;23;20468;-77
2023/02/18 00:36:49;;;;;;;16.45;3.60;;;7.30;99.90;;;;;;6185816;23;20024;-76
2023/02/18 00:39:15;;;;;;;12.82;2.90;;;7.30;99.90;;;;;;6187233;23;20013;-76
2023/02/18 00:41:41;;;;;;;14.50;3.70;;;7.30;99.90;;;;;;6185855;23;20051;-76
2023/02/18 00:44:08;;;;;;;15.40;3.33;;;7.40;99.90;;;;;;6185644;23;20013;-77
2023/02/18 00:46:34;;;;;;;11.82;3.45;;;7.40;99.90;;;;;;6161121;23;20013;-76
2023/02/18 00:49:00;;;;;;;17.08;3.35;;;7.40;99.90;;;;;;6187542;23;20088;-76
2023/02/18 00:51:26;;;;;;;14.55;3.78;;;7.50;99.90;;;;;;6185553;23;20012;-76
2023/02/18 00:53:52;;;;;;;13.57;3.50;;;7.50;99.90;;;;;;6187449;23;20083;-76
2023/02/18 00:56:19;;;;;;;16.20;3.35;;;7.60;99.90;;;;;;6185737;23;20043;-76
2023/02/18 00:58:45;;;;;;;15.68;3.35;;;7.50;99.90;;;;;;6187003;23;20020;-77
2023/02/18 01:01:11;;;;;;;17.20;3.50;;;7.50;99.90;;;;;;6185717;23;20009;-76
2023/02/18 01:03:39;;;;;;;16.77;3.20;;;7.50;99.90;;;;;;6185566;23;20013;-76
2023/02/18 01:06:05;;;;;;;15.00;3.05;;;7.40;99.90;;;;;;6185540;23;20024;-76
2023/02/18 01:08:32;;;;;;;15.82;3.25;;;7.50;99.90;;;;;;6187350;23;20013;-77
2023/02/18 01:10:58;;;;;;;19.20;3.83;;;7.50;99.90;;;;;;6185548;23;20024;-76
2023/02/18 01:13:24;;;;;;;18.15;3.22;;;7.60;99.90;;;;;;6185464;23;20009;-76
2023/02/18 01:15:50;;;;;;;15.15;3.30;;;7.60;99.90;;;;;;6185634;23;20040;-76
2023/02/18 01:18:19;;;;;;;12.98;3.13;;;7.80;99.90;;;;;;6160785;23;20051;-76
2023/02/18 01:20:45;;;;;;;14.50;3.33;;;7.80;99.90;;;;;;6187104;23;20024;-77
2023/02/18 01:23:11;;;;;;;15.82;3.00;;;7.80;99.90;;;;;;6160614;23;20017;-76
2023/02/18 01:25:37;;;;;;;16.10;3.95;;;7.70;99.90;;;;;;6185366;23;20017;-76
2023/02/18 01:28:06;;;;;;;14.07;3.83;;;7.70;99.90;;;;;;6160471;23;20019;-76
2023/02/18 01:30:32;;;;;;;14.77;3.33;;;7.60;99.90;;;;;;6185244;23;20009;-76
2023/02/18 01:32:58;;;;;;;15.82;3.70;;;7.70;99.90;;;;;;6185276;23;20023;-76
2023/02/18 01:35:24;;;;;;;17.40;4.13;;;7.60;99.90;;;;;;6185757;23;20059;-76
2023/02/18 01:37:50;;;;;;;16.05;3.70;;;7.70;99.90;;;;;;6160528;23;20013;-76
2023/02/18 01:40:20;;;;;;;14.05;4.28;;;7.60;99.90;;;;;;6160519;23;20009;-76
2023/02/18 01:42:46;;;;;;;13.90;3.90;;;7.60;99.90;;;;;;6185306;23;20316;-76
2023/02/18 01:45:36;;;;;;;17.50;4.43;;;7.70;99.90;;;;;;6185144;23;20009;-76
2023/02/18 01:48:13;;;;;;;18.40;4.65;;;7.80;99.90;;;;;;6160270;23;20017;-76
2023/02/18 01:50:43;;;;;;;20.40;5.47;;;7.80;99.90;;;;;;6185172;23;20020;-76
2023/02/18 01:53:09;;;;;;;20.35;4.15;;;7.90;99.90;;;;;;6185364;23;20454;-76
2023/02/18 01:55:36;;;;;;;24.20;6.18;;;7.80;99.90;;;;;;6185013;23;20037;-76
2023/02/18 01:58:02;;;;;;;16.83;5.38;;;7.80;99.90;;;;;;6160399;23;20044;-76
2023/02/18 02:00:29;;;;;;;22.25;5.63;;;7.80;99.90;;;;;;6185074;23;20013;-76
2023/02/18 02:02:55;;;;;;;18.90;6.63;;;7.90;99.90;;;;;;6184948;23;20036;-75
2023/02/18 02:05:21;;;;;;;21.63;6.72;;;8.00;99.90;;;;;;6160092;23;20450;-76
2023/02/18 02:07:50;;;;;;;17.80;7.47;;;7.90;99.90;;;;;;6160076;23;20016;-76
2023/02/18 02:10:17;;;;;;;21.48;8.50;;;8.00;99.90;;;;;;6184735;23;20012;-75
2023/02/18 02:12:42;;;;;;;20.63;8.65;;;8.00;99.90;;;;;;6159618;23;20092;-75
2023/02/18 02:15:26;;;;;;;22.00;8.85;;;8.00;99.90;;;;;;6184872;23;20124;-75
2023/02/18 02:18:24;;;;;;;27.63;10.48;;;8.10;99.90;;;;;;6160199;23;20069;-75
2023/02/18 02:21:08;;;;;;;24.58;10.13;;;8.10;99.90;;;;;;6160025;23;20035;-76
2023/02/18 02:24:09;;;;;;;24.70;10.75;;;8.20;99.90;;;;;;6184741;23;20013;-76
2023/02/18 02:27:00;;;;;;;21.65;10.43;;;8.10;99.90;;;;;;6183860;23;20442;-76
2023/02/18 02:29:40;;;;;;;;;;;8.30;99.90;;;;;;6185047;23;20374;-75
2023/02/18 02:32:40;;;;;;;28.25;11.20;;;8.20;99.90;;;;;;6185339;23;19935;-76
2023/02/18 02:35:09;;;;;;;27.70;10.38;;;8.20;99.90;;;;;;6184812;23;20080;-76
2023/02/18 02:37:43;;;;;;;20.73;10.73;;;8.40;99.90;;;;;;6186649;23;20087;-76
2023/02/18 02:40:47;;;;;;;23.13;10.82;;;8.40;99.90;;;;;;6160058;23;20331;-76
2023/02/18 02:43:34;;;;;;;26.83;10.48;;;8.30;99.90;;;;;;6042278;23;20122;-76
2023/02/18 02:46:20;;;;;;;28.25;9.68;;;8.40;99.90;;;;;;6042967;23;20018;-76
2023/02/18 02:48:57;;;;;;;21.23;9.38;;;8.50;99.90;;;;;;6066623;23;20018;-76
2023/02/18 02:51:34;;;;;;;21.65;11.02;;;8.40;99.90;;;;;;6042470;23;20337;-76
2023/02/18 02:54:29;;;;;;;21.55;9.15;;;8.50;99.90;;;;;;6042439;23;20015;-76
2023/02/18 02:57:05;;;;;;;26.08;9.35;;;8.50;99.90;;;;;;6048575;23;20051;-76
2023/02/18 02:59:31;;;;;;;21.63;9.57;;;8.50;99.90;;;;;;6066380;23;20011;-76
2023/02/18 03:02:16;;;;;;;21.60;9.27;;;8.40;99.90;;;;;;6042447;23;20404;-76
2023/02/18 03:05:32;;;;;;;21.00;8.98;;;8.40;99.90;;;;;;6042704;23;20023;-76
2023/02/18 03:08:21;;;;;;;22.38;8.95;;;8.50;99.90;;;;;;6004850;23;20021;-76
2023/02/18 03:10:58;;;;;;;23.70;8.07;;;8.50;99.90;;;;;;5981523;24;20020;-76
2023/02/18 03:13:42;;;;;;;19.38;9.82;;;8.60;99.90;;;;;;5981638;24;20020;-76
2023/02/18 03:16:45;;;;;;;21.02;9.15;;;8.50;99.90;;;;;;5991019;23;20012;-76
2023/02/18 03:19:22;;;;;;;18.67;7.30;;;8.60;99.90;;;;;;6083831;23;20372;-76
2023/02/18 03:21:59;;;;;;;21.65;7.88;;;8.70;99.90;;;;;;6095554;23;20069;-77
2023/02/18 03:24:43;;;;;;;19.40;7.80;;;8.60;99.90;;;;;;6071491;23;20034;-76
2023/02/18 03:27:22;;;;;;;21.38;7.78;;;8.60;99.90;;;;;;6095439;23;20014;-77
2023/02/18 03:29:53;;;;;;;21.40;7.95;;;8.70;99.90;;;;;;6071120;23;20069;-76
2023/02/18 03:32:21;;;;;;;18.83;7.97;;;8.60;99.90;;;;;;6095578;23;20412;-77
2023/02/18 03:34:56;;;;;;;18.35;8.05;;;8.60;99.90;;;;;;6071276;23;20026;-76
2023/02/18 03:37:22;;;;;;;17.98;8.10;;;8.70;99.90;;;;;;6071447;23;20011;-77
2023/02/18 03:39:53;;;;;;;15.55;8.23;;;8.70;99.90;;;;;;6095213;23;20081;-76
2023/02/18 03:42:23;;;;;;;16.50;8.77;;;8.70;99.90;;;;;;6165087;23;20020;-76
2023/02/18 03:44:49;;;;;;;26.23;11.73;;;8.60;99.90;;;;;;6184736;23;20017;-76
2023/02/18 03:47:15;;;;;;;25.83;12.60;;;8.60;99.90;;;;;;6159732;23;20017;-76
2023/02/18 03:49:40;;;;;;;29.83;14.75;;;8.70;99.90;;;;;;6186240;23;20016;-76
2023/02/18 03:52:06;;;;;;;32.78;16.73;;;8.80;99.90;;;;;;6186175;23;20407;-76
2023/02/18 03:54:31;;;;;;;30.65;17.08;;;8.80;99.90;;;;;;6186183;23;20016;-76
2023/02/18 03:56:57;;;;;;;43.13;19.50;;;8.70;99.90;;;;;;6159550;23;20395;-76
2023/02/18 03:59:23;;;;;;;43.35;21.25;;;8.90;99.90;;;;;;6186227;23;20312;-77
2023/02/18 04:01:48;;;;;;;42.47;20.88;;;8.90;99.90;;;;;;6186356;23;20080;-76
2023/02/18 04:04:14;;;;;;;52.75;23.63;;;8.70;99.90;;;;;;6186226;23;20080;-76
2023/02/18 04:06:39;;;;;;;51.05;24.58;;;8.90;99.90;;;;;;6187907;23;20056;-76
2023/02/18 04:09:07;;;;;;;55.25;25.92;;;8.80;99.90;;;;;;6187925;23;20009;-76
2023/02/18 04:11:36;;;;;;;50.90;25.17;;;8.90;99.90;;;;;;6187510;23;20476;-76
2023/02/18 04:14:01;;;;;;;52.28;27.88;;;8.90;99.90;;;;;;6161125;23;20052;-76
2023/02/18 04:16:27;;;;;;;57.05;26.70;;;8.90;99.90;;;;;;6187637;23;20351;-76
2023/02/18 04:18:52;;;;;;;47.55;26.98;;;8.90;99.90;;;;;;6187906;23;20020;-76
2023/02/18 04:21:18;;;;;;;50.42;28.15;;;8.90;99.90;;;;;;6186575;23;20048;-76
2023/02/18 04:23:44;;;;;;;56.40;29.50;;;8.80;99.90;;;;;;6186037;23;20020;-76
2023/02/18 04:26:09;;;;;;;53.67;30.40;;;8.90;99.90;;;;;;6187792;23;20434;-76
2023/02/18 04:28:35;;;;;;;57.65;31.13;;;9.10;99.90;;;;;;6186252;23;20020;-76
2023/02/18 04:31:00;;;;;;;61.05;32.63;;;9.10;99.90;;;;;;6185792;23;20023;-77
2023/02/18 04:33:26;;;;;;;58.40;31.52;;;9.00;99.90;;;;;;6187578;23;20049;-76
2023/02/18 04:35:52;;;;;;;59.95;31.83;;;9.10;99.90;;;;;;6185907;23;20478;-77
2023/02/18 04:38:17;;;;;;;55.33;30.45;;;8.90;99.90;;;;;;6186263;23;20013;-76
2023/02/18 04:40:43;;;;;;;61.08;32.13;;;9.10;99.90;;;;;;6186187;23;20012;-76
2023/02/18 04:43:08;;;;;;;60.45;32.78;;;8.90;99.90;;;;;;6185713;23;20013;-76
2023/02/18 04:45:34;;;;;;;65.43;33.25;;;8.90;99.90;;;;;;6186020;23;20013;-76
2023/02/18 04:48:00;;;;;;;58.45;30.85;;;9.00;99.90;;;;;;6160905;23;20341;-76
2023/02/18 04:50:26;;;;;;;65.50;32.05;;;9.00;99.90;;;;;;6187414;23;20064;-76
2023/02/18 04:52:52;;;;;;;61.42;32.60;;;9.00;99.90;;;;;;6185479;23;20100;-76
2023/02/18 04:55:17;;;;;;;65.35;32.95;;;9.00;99.90;;;;;;6185587;23;20043;-76
2023/02/18 04:57:43;;;;;;;61.95;31.02;;;9.10;99.90;;;;;;6187305;23;20013;-76
2023/02/18 05:00:15;;;;;;;66.30;33.28;;;9.20;99.90;;;;;;6160886;23;20009;-76
2023/02/18 05:02:41;;;;;;;60.08;31.92;;;9.10;99.90;;;;;;6187603;23;20037;-76
2023/02/18 05:05:06;;;;;;;63.63;33.35;;;9.10;99.90;;;;;;6160723;23;20014;-76
2023/02/18 05:07:33;;;;;;;68.18;33.25;;;9.10;99.90;;;;;;6187179;23;20149;-76
2023/02/18 05:09:59;;;;;;;76.35;34.15;;;9.10;99.90;;;;;;6185594;23;20352;-76
2023/02/18 05:12:24;;;;;;;71.53;34.83;;;9.10;99.90;;;;;;6160682;23;20040;-77
2023/02/18 05:14:50;;;;;;;86.82;35.95;;;9.20;99.90;;;;;;6160779;23;20075;-76
2023/02/18 05:17:16;;;;;;;74.95;36.60;;;9.20;99.90;;;;;;6185508;23;20087;-76
2023/02/18 05:19:41;;;;;;;78.78;35.55;;;9.20;99.90;;;;;;6186955;23;20005;-76
2023/02/18 05:22:07;;;;;;;90.75;37.10;;;9.00;99.90;;;;;;6185578;23;20342;-76
2023/02/18 05:24:33;;;;;;;97.60;36.70;;;9.10;99.90;;;;;;6185554;23;20013;-76
2023/02/18 05:26:59;;;;;;;91.72;36.65;;;9.00;99.90;;;;;;6187430;23;20067;-76
2023/02/18 05:29:24;;;;;;;102.75;37.47;;;9.00;99.90;;;;;;6185251;23;20316;-76
2023/02/18 05:31:50;;;;;;;93.97;34.95;;;9.10;99.90;;;;;;6185681;23;20024;-76
2023/02/18 05:34:16;;;;;;;93.07;36.08;;;9.10;99.90;;;;;;6160297;23;20020;-76
2023/02/18 05:36:42;;;;;;;101.05;36.60;;;8.90;99.90;;;;;;6160375;23;20009;-76
2023/02/18 05:39:08;;;;;;;99.80;34.05;;;9.00;99.90;;;;;;6185726;23;20017;-76
2023/02/18 05:41:33;;;;;;;99.78;35.10;;;9.00;99.90;;;;;;6185625;23;20020;-76
2023/02/18 05:44:41;;;;;;;100.53;33.53;;;9.10;99.90;;;;;;6187040;23;20013;-77
2023/02/18 05:46:47;;;;;;;95.97;32.03;;;9.00;99.90;;;;;;6173676;23;20385;-76
2023/02/18 05:49:13;;;;;;;103.15;34.00;;;9.00;99.90;;;;;;6160346;23;20017;-77
2023/02/18 05:51:39;;;;;;;92.70;32.45;;;9.00;99.90;;;;;;6186995;23;20013;-76
2023/02/18 05:54:05;;;;;;;94.60;30.98;;;9.10;99.90;;;;;;6185072;23;20495;-76
2023/02/18 05:56:31;;;;;;;89.15;29.25;;;9.00;99.90;;;;;;6185157;23;20064;-76
2023/02/18 05:58:59;;;;;;;94.80;30.13;;;9.10;99.90;;;;;;6160357;23;20461;-77
2023/02/18 06:01:25;;;;;;;84.63;27.45;;;9.20;99.90;;;;;;6160314;23;20051;-77
2023/02/18 06:03:50;;;;;;;92.65;28.55;;;9.20;99.90;;;;;;6185469;23;20021;-77
2023/02/18 06:06:16;;;;;;;77.68;24.08;;;9.30;99.90;;;;;;6185183;23;20024;-77
2023/02/18 06:08:42;;;;;;;76.97;25.00;;;9.20;99.90;;;;;;6185559;23;20024;-77
2023/02/18 06:11:07;;;;;;;70.07;22.60;;;9.30;99.90;;;;;;6185122;23;20023;-77
2023/02/18 06:13:33;;;;;;;63.28;21.58;;;9.20;99.90;;;;;;6186697;23;20322;-77
2023/02/18 06:15:59;;;;;;;61.15;20.48;;;9.20;99.90;;;;;;6160114;23;20009;-77
2023/02/18 06:18:24;;;;;;;59.97;19.63;;;9.40;99.90;;;;;;6186991;23;20066;-77
2023/02/18 06:20:50;;;;;;;58.97;19.17;;;9.40;99.90;;;;;;6185112;23;20308;-77
2023/02/18 06:23:16;;;;;;;57.35;17.52;;;9.40;99.90;;;;;;6185911;23;20024;-77
2023/02/18 06:25:42;;;;;;;43.45;16.50;;;9.40;99.90;;;;;;6160371;23;20096;-77
2023/02/18 06:28:08;;;;;;;45.65;18.30;;;9.40;99.90;;;;;;6185014;23;20048;-77
2023/02/18 06:30:33;;;;;;;39.78;15.20;;;9.40;99.90;;;;;;6184599;23;20025;-77
2023/02/18 06:32:59;;;;;;;38.83;14.85;;;9.40;99.90;;;;;;6184624;23;20013;-77
2023/02/18 06:35:24;;;;;;;44.65;14.02;;;9.60;99.90;;;;;;6186748;23;20013;-77
2023/02/18 06:37:50;;;;;;;34.40;13.38;;;9.60;99.90;;;;;;6185273;23;20434;-78
2023/02/18 06:40:17;;;;;;;26.83;11.75;;;9.60;99.90;;;;;;6186900;23;20016;-77
2023/02/18 06:42:43;;;;;;;26.05;11.65;;;9.50;99.90;;;;;;6184865;23;20020;-78
2023/02/18 06:45:09;;;;;;;23.38;10.20;;;9.60;99.90;;;;;;6159809;23;20092;-77
2023/02/18 06:47:34;;;;;;;24.55;10.63;;;9.50;99.90;;;;;;6160412;23;20024;-78
2023/02/18 06:50:04;;;;;;;22.15;10.40;;;9.50;99.90;;;;;;6186303;23;20017;-78
2023/02/18 06:52:32;;;;;;;23.65;9.70;;;9.60;99.90;;;;;;6186434;23;20009;-77
2023/02/18 06:54:58;;;;;;;20.33;9.63;;;9.60;99.90;;;;;;6159893;23;20017;-77
2023/02/18 06:57:23;;;;;;;19.10;9.40;;;9.70;99.90;;;;;;6185303;23;20084;-77
2023/02/18 06:59:49;;;;;;;18.83;8.57;;;9.70;99.90;;;;;;6159968;23;20009;-78
2023/02/18 07:02:14;;;;;;;17.02;9.00;;;9.50;99.90;;;;;;6185009;23;20009;-79
2023/02/18 07:04:40;;;;;;;18.63;9.43;;;9.70;99.90;;;;;;6160132;23;20017;-80
2023/02/18 07:07:06;;;;;;;22.88;10.25;;;9.70;99.90;;;;;;6160108;23;20013;-79
2023/02/18 07:09:31;;;;;;;23.17;10.50;;;9.60;99.90;;;;;;6185159;23;20013;-79
2023/02/18 07:11:57;;;;;;;22.10;10.55;;;9.60;99.90;;;;;;6185332;23;20351;-79
2023/02/18 07:14:23;;;;;;;23.05;12.32;;;9.60;99.90;;;;;;6184569;23;20039;-79
2023/02/18 07:16:49;;;;;;;26.55;12.88;;;9.50;99.90;;;;;;6185242;23;20327;-79
2023/02/18 07:19:16;;;;;;;30.95;14.25;;;9.60;99.90;;;;;;6186505;23;20434;-80
2023/02/18 07:21:42;;;;;;;27.48;15.25;;;9.60;99.90;;;;;;6185027;23;20013;-78
2023/02/18 07:24:07;;;;;;;28.58;16.98;;;9.80;99.90;;;;;;6184944;23;20063;-79
2023/02/18 07:26:33;;;;;;;27.83;17.60;;;9.70;99.90;;;;;;6159811;23;20091;-79
2023/02/18 07:28:59;;;;;;;31.75;17.85;;;9.90;99.90;;;;;;6159709;23;20021;-80
2023/02/18 07:31:27;;;;;;;28.25;17.67;;;9.90;99.90;;;;;;6159697;23;20017;-79
2023/02/18 07:33:52;;;;;;;29.10;17.63;;;9.80;99.90;;;;;;6185327;23;20021;-80
2023/02/18 07:36:18;;;;;;;30.27;17.02;;;9.80;99.90;;;;;;6184438;23;20016;-80
2023/02/18 07:38:44;;;;;;;29.25;17.45;;;9.90;99.90;;;;;;6159597;23;20096;-81
2023/02/18 07:41:17;;;;;;;30.70;18.23;;;10.00;99.90;;;;;;6160900;23;20013;-81
2023/02/18 07:43:49;;;;;;;31.25;18.67;;;9.80;99.90;;;;;;6162256;23;20447;-82
2023/02/18 07:46:16;;;;;;;33.72;20.17;;;10.00;99.90;;;;;;6186745;23;20013;-85
2023/02/18 07:48:42;;;;;;;38.08;21.77;;;10.00;99.90;;;;;;6161795;23;20497;-84
2023/02/18 07:51:11;;;;;;;32.85;20.00;;;10.00;99.90;;;;;;6161560;23;20055;-85
2023/02/18 07:53:41;;;;;;;39.42;20.85;;;10.00;99.90;;;;;;6186316;23;20009;-84
2023/02/18 07:56:07;;;;;;;36.40;22.90;;;9.80;99.90;;;;;;6161634;23;20013;-73
2023/02/18 07:58:35;;;;;;;37.40;23.67;;;9.90;99.90;;;;;;6186385;23;20144;-81
2023/02/18 08:01:06;;;;;;;37.25;21.55;;;9.90;99.90;;;;;;6161445;23;20013;-84
2023/02/18 08:03:33;;;;;;;34.92;20.83;;;9.80;99.90;;;;;;6186776;23;20058;-78
2023/02/18 08:05:59;;;;;;;36.40;21.15;;;9.80;99.90;;;;;;6186287;23;20013;-78
2023/02/18 08:08:28;;;;;;;33.55;19.95;;;9.90;99.90;;;;;;6188290;23;20048;-83
2023/02/18 08:10:58;;;;;;;40.40;22.58;;;9.90;99.90;;;;;;6186698;23;20067;-81
2023/02/18 08:13:24;;;;;;;34.95;21.10;;;9.80;99.90;;;;;;6186195;23;20052;-80
2023/02/18 08:15:50;;;;;;;34.90;20.35;;;9.80;99.90;;;;;;6187946;23;20009;-75
2023/02/18 08:18:21;;;;;;;31.75;20.02;;;9.70;99.90;;;;;;6186549;23;20056;-75
2023/02/18 08:20:47;;;;;;;28.70;18.73;;;9.90;99.90;;;;;;6186043;23;20088;-77
2023/02/18 08:23:14;;;;;;;26.30;16.88;;;9.80;99.90;;;;;;6185935;23;20017;-76
2023/02/18 08:25:43;;;;;;;30.83;18.92;;;9.90;99.90;;;;;;6186072;23;20020;-76
2023/02/18 08:28:09;;;;;;;25.87;15.30;;;9.90;99.90;;;;;;6185973;23;20032;-76
2023/02/18 08:30:34;;;;;;;24.60;17.42;;;9.80;99.90;;;;;;6185675;23;20013;-75
2023/02/18 08:33:00;;;;;;;23.25;15.95;;;10.00;99.90;;;;;;6186052;23;20315;-75
2023/02/18 08:35:26;;;;;;;22.38;16.77;;;9.90;99.90;;;;;;6187709;23;20020;-75
2023/02/18 08:37:51;;;;;;;27.40;17.25;;;10.00;99.90;;;;;;6185871;23;20020;-76
2023/02/18 08:40:17;;;;;;;28.48;16.73;;;10.00;99.90;;;;;;6186276;23;20009;-75
2023/02/18 08:42:43;;;;;;;26.40;15.85;;;10.00;99.90;;;;;;6160982;23;20095;-75
2023/02/18 08:45:08;;;;;;;23.77;15.23;;;10.00;99.90;;;;;;6185805;23;20013;-74
2023/02/18 08:47:34;;;;;;;27.25;16.40;;;10.00;99.90;;;;;;6185947;23;20070;-74
2023/02/18 08:49:59;;;;;;;25.30;16.00;;;10.00;99.90;;;;;;6187623;23;20009;-75
2023/02/18 08:52:26;;;;;;;30.70;16.08;;;10.00;99.90;;;;;;6185685;23;20087;-74
2023/02/18 08:54:51;;;;;;;26.60;15.85;;;9.80;99.90;;;;;;6186078;23;20017;-77
2023/02/18 08:57:17;;;;;;;26.20;15.02;;;10.00;99.90;;;;;;6187758;23;20012;-76
2023/02/18 08:59:43;;;;;;;22.00;14.50;;;10.00;99.90;;;;;;6187630;23;20013;-74
2023/02/18 09:02:12;;;;;;;20.40;12.15;;;9.90;99.90;;;;;;6185908;23;20013;-79
2023/02/18 09:04:37;;;;;;;19.50;13.02;;;10.10;99.90;;;;;;6187344;23;20020;-81
2023/02/18 09:07:03;;;;;;;21.55;12.32;;;9.90;99.90;;;;;;6185742;23;20036;-70
2023/02/18 09:09:29;;;;;;;22.55;12.52;;;9.90;99.90;;;;;;6185671;23;20013;-74
2023/02/18 09:11:54;;;;;;;26.20;13.77;;;10.00;99.90;;;;;;6187099;23;20024;-71
2023/02/18 09:14:20;;;;;;;18.95;12.90;;;10.00;99.90;;;;;;6187218;23;20024;-72
2023/02/18 09:16:49;;;;;;;20.92;11.77;;;10.00;99.90;;;;;;6187579;23;20009;-72
2023/02/18 09:19:15;;;;;;;21.00;12.05;;;10.00;99.90;;;;;;6185492;23;20088;-72
2023/02/18 09:21:41;;;;;;;18.23;11.00;;;9.80;99.90;;;;;;6187373;23;20013;-72
2023/02/18 09:24:06;;;;;;;18.63;10.20;;;9.90;99.90;;;;;;6185476;23;20021;-72
2023/02/18 09:26:32;;;;;;;17.35;10.05;;;9.80;99.90;;;;;;6185481;23;20020;-72
2023/02/18 09:28:58;;;;;;;18.98;9.63;;;9.80;99.90;;;;;;6185498;23;20024;-72
2023/02/18 09:31:25;;;;;;;15.50;8.63;;;9.90;99.90;;;;;;6185275;23;20025;-72
2023/02/18 09:33:58;;;;;;;17.08;9.32;;;9.70;99.90;;;;;;6186050;23;20079;-75
2023/02/18 09:36:24;;;;;;;15.82;8.50;;;9.70;99.90;;;;;;6161677;23;20092;-83
2023/02/18 09:38:50;;;;;;;14.57;8.20;;;9.70;99.90;;;;;;6185858;23;20334;-73
2023/02/18 09:41:30;;;;;;;12.48;7.95;;;9.80;99.90;;;;;;6160826;23;20453;-73
2023/02/18 09:44:18;;;;;;;13.40;8.40;;;9.70;99.90;;;;;;6187271;23;20013;-75
2023/02/18 09:46:58;;;;;;;16.80;8.77;;;9.70;99.90;;;;;;6185399;23;20013;-75
2023/02/18 09:49:32;;;;;;;14.85;9.18;;;9.60;99.90;;;;;;6187223;23;20088;-72
2023/02/18 09:52:06;;;;;;;17.30;8.73;;;9.70;99.90;;;;;;6187112;23;20020;-74
2023/02/18 09:54:31;;;;;;;15.73;8.45;;;9.60;99.90;;;;;;6187071;23;20013;-74
2023/02/18 09:56:58;;;;;;;14.35;8.38;;;9.70;99.90;;;;;;6185151;23;20012;-74
2023/02/18 09:59:25;;;;;;;16.55;8.65;;;9.70;99.90;;;;;;6185431;23;20013;-73
2023/02/18 10:01:53;;;;;;;18.38;8.63;;;9.60;99.90;;;;;;6160628;23;20013;-73
2023/02/18 10:04:23;;;;;;;11.38;7.07;;;9.60;99.90;;;;;;6160163;23;20009;-74
2023/02/18 10:06:52;;;;;;;11.80;5.82;;;9.60;99.90;;;;;;6160481;23;20013;-73
2023/02/18 10:09:33;;;;;;;17.52;7.47;;;9.60;99.90;;;;;;6160163;23;20105;-70
2023/02/18 10:12:20;;;;;;;22.10;7.78;;;9.70;99.90;;;;;;6185036;23;20025;-71
2023/02/18 10:14:53;;;;;;;12.75;7.00;;;9.70;99.90;;;;;;6184926;23;20009;-73
2023/02/18 10:17:21;;;;;;;19.70;7.10;;;9.70;99.90;;;;;;6161401;23;20013;-74
2023/02/18 10:19:49;;;;;;;15.52;7.32;;;9.50;99.90;;;;;;6185067;23;20013;-74
2023/02/18 10:22:17;;;;;;;14.80;6.28;;;9.50;99.90;;;;;;6185109;23;20017;-73
2023/02/18 10:24:47;;;;;;;11.30;5.25;;;9.60;99.90;;;;;;6186546;23;20075;-73
2023/02/18 10:27:23;;;;;;;16.65;6.18;;;9.60;99.90;;;;;;6186862;23;20071;-73
2023/02/18 10:29:49;;;;;;;11.20;5.47;;;9.60;99.90;;;;;;6186600;23;20028;-73
2023/02/18 10:32:33;;;;;;;17.30;6.40;;;9.60;99.90;;;;;;6186999;23;20009;-73
2023/02/18 10:35:14;;;;;;;11.68;4.63;;;9.70;99.90;;;;;;6185348;23;20018;-73
2023/02/18 10:38:04;;;;;;;13.05;5.00;;;9.70;99.90;;;;;;6186562;23;20020;-73
2023/02/18 10:40:32;;;;;;;21.02;5.85;;;9.70;99.90;;;;;;6186897;23;20013;-73
2023/02/18 10:43:31;;;;;;;17.33;4.97;;;9.80;99.90;;;;;;6186771;23;20092;-73
2023/02/18 10:46:08;;;;;;;16.80;4.83;;;9.70;99.90;;;;;;6185167;23;20088;-72
2023/02/18 10:49:14;;;;;;;18.88;5.30;;;9.70;99.90;;;;;;6184853;23;20124;-73
2023/02/18 10:51:49;;;;;;;18.83;4.80;;;9.80;99.90;;;;;;6159831;23;20036;-71
2023/02/18 10:54:14;;;;;;;24.80;5.15;;;9.80;99.90;;;;;;6185187;23;20013;-68
2023/02/18 10:56:48;;;;;;;16.77;4.68;;;9.80;99.90;;;;;;6186625;23;20059;-79
2023/02/18 10:59:20;;;;;;;18.88;4.78;;;9.90;99.90;;;;;;6186523;23;20052;-74
2023/02/18 11:01:57;;;;;;;16.10;4.35;;;10.00;99.90;;;;;;6159883;23;20024;-74
2023/02/18 11:04:32;;;;;;;15.70;4.35;;;10.00;99.90;;;;;;6186203;23;20040;-74
2023/02/18 11:07:04;;;;;;;16.88;4.50;;;10.20;99.90;;;;;;6186859;23;20055;-80
2023/02/18 11:09:29;;;;;;;13.02;3.42;;;10.10;99.90;;;;;;6159750;23;20088;-81
2023/02/18 11:12:02;;;;;;;12.27;3.60;;;10.30;99.90;;;;;;6184621;23;20048;-80
2023/02/18 11:14:44;;;;;;;11.38;3.67;;;10.30;99.90;;;;;;6185432;23;20020;-81
2023/02/18 11:17:29;;;;;;;12.65;3.15;;;10.40;99.90;;;;;;6162824;23;20343;-79
2023/02/18 11:20:01;;;;;;;14.32;3.97;;;10.40;99.90;;;;;;6187120;23;20048;-79
2023/02/18 11:22:32;;;;;;;11.57;2.85;;;10.50;99.90;;;;;;6161766;23;20088;-77
2023/02/18 11:25:00;;;;;;;12.00;3.45;;;10.40;99.90;;;;;;6186547;23;20469;-80
2023/02/18 11:27:38;;;;;;;15.38;3.75;;;10.40;99.90;;;;;;6186557;23;20013;-79
2023/02/18 11:30:15;;;;;;;14.32;3.33;;;10.40;99.90;;;;;;6186429;23;20334;-80
2023/02/18 11:32:44;;;;;;;12.88;3.30;;;10.60;99.90;;;;;;6161226;23;20049;-78
2023/02/18 11:35:19;;;;;;;15.23;3.28;;;10.60;99.90;;;;;;6186386;23;20019;-81
2023/02/18 11:37:45;;;;;;;12.73;4.50;;;10.70;99.90;;;;;;6186311;23;20450;-79
2023/02/18 11:40:28;;;;;;;13.50;3.85;;;10.60;99.90;;;;;;6186799;23;20044;-82
2023/02/18 11:43:13;;;;;;;12.52;3.53;;;10.80;99.90;;;;;;6186455;23;20016;-83
2023/02/18 11:45:40;;;;;;;14.60;3.38;;;10.70;99.90;;;;;;6186790;23;20063;-80
2023/02/18 11:48:18;;;;;;;9.13;2.85;;;10.80;99.90;;;;;;6186272;23;20020;-80
2023/02/18 11:50:49;;;;;;;17.08;3.58;;;10.80;99.90;;;;;;6186671;23;20009;-82
2023/02/18 11:53:26;;;;;;;11.18;3.15;;;10.70;99.90;;;;;;6188104;23;20013;-77
2023/02/18 11:55:58;;;;;;;13.40;3.65;;;10.80;99.90;;;;;;6188239;23;20009;-77
2023/02/18 11:58:25;;;;;;;12.70;3.13;;;10.80;99.90;;;;;;6186390;23;20012;-87
2023/02/18 12:00:57;;;;;;;12.10;2.70;;;10.80;99.90;;;;;;6188111;23;20073;-74
2023/02/18 12:03:47;;;;;;;10.57;3.20;;;10.90;99.90;;;;;;6188214;23;20323;-81
2023/02/18 12:06:31;;;;;;;12.88;3.15;;;10.90;99.90;;;;;;6161608;23;20039;-81
2023/02/18 12:09:43;;;;;;;13.02;3.20;;;10.90;99.90;;;;;;6188133;23;20020;-81
2023/02/18 12:12:34;;;;;;;9.65;4.00;;;11.00;99.90;;;;;;6142891;23;20052;-82
2023/02/18 12:15:00;;;;;;;13.43;3.22;;;11.00;99.90;;;;;;6185920;23;20021;-81
2023/02/18 12:17:38;;;;;;;13.77;3.17;;;11.10;99.90;;;;;;6187876;23;20369;-78
2023/02/18 12:20:21;;;;;;;15.02;3.30;;;11.10;99.90;;;;;;6188557;23;20023;-74
2023/02/18 12:22:52;;;;;;;8.80;2.90;;;11.00;99.90;;;;;;6186062;23;20020;-75
2023/02/18 12:25:48;;;;;;;13.45;3.25;;;11.00;99.90;;;;;;6187363;23;20088;-76
2023/02/18 12:28:35;;;;;;;13.88;3.35;;;11.10;99.90;;;;;;6187791;23;20009;-76
2023/02/18 12:31:34;;;;;;;10.90;2.97;;;11.00;99.90;;;;;;6185834;23;20009;-75
2023/02/18 12:34:22;;;;;;;12.82;3.85;;;11.10;99.90;;;;;;6163683;23;20017;-76
2023/02/18 12:37:26;;;;;;;11.93;2.92;;;11.10;99.90;;;;;;6185875;23;20045;-76
2023/02/18 12:39:55;;;;;;;13.07;3.20;;;11.20;99.90;;;;;;6156101;23;20456;-75
2023/02/18 12:42:38;;;;;;;10.32;3.40;;;11.30;99.90;;;;;;6187749;23;20085;-76
2023/02/18 12:45:19;;;;;;;15.82;3.22;;;11.30;99.90;;;;;;6161175;23;20048;-76
2023/02/18 12:48:06;;;;;;;10.63;3.53;;;11.20;99.90;;;;;;6187715;23;20013;-76
2023/02/18 12:50:48;;;;;;;12.43;3.47;;;11.30;99.90;;;;;;6187496;23;20024;-76
2023/02/18 12:53:34;;;;;;;12.98;4.00;;;11.20;99.90;;;;;;6186185;23;20013;-75
2023/02/18 12:56:37;;;;;;;14.15;3.05;;;11.20;99.90;;;;;;6176409;23;20017;-76
2023/02/18 12:59:06;;;;;;;12.20;3.75;;;11.30;99.90;;;;;;6187641;23;20013;-74